Aurora, Missouri
Current Conditions -  °F | °C
As of 8:15 PM on Thursday 20 Nov 2014 (Local Time) from KHFJ Reporting Station
Clear Clear  
Wind Chill: -2°   Ceiling: Unl
Heat Index:   Visibility: 10mi
Dew Point: -5°   Wind: 7mph
Humidity: 65%   Direction: 60°ENE
Pressure: 30.15"   Gusts: NA
Location:  36.97°N, 93.72°W
Report Text: KHFJ 210215Z AUTO 06006KT 10SM CLR 01/M05 A3015 RMK AO2
Loading
Personal Weather Stations






























Interactive Weather Map New forecast layout! Learn more

10-Day Weather Forecast

Advertisements
Track Severe Weather on mobile